ADDS METAR Data INFO
IDs: Format: Raw Decoded Include TAF

Data at: 1859 UTC 22 Sep 2017

METAR for:KBEA (Beeville Muni, TX, US)
Text:KBEA 221855Z AUTO 16007KT 10SM SCT055 35/10 A2990 RMK AO2 T03500101
Temperature: 35.0°C ( 95°F)
Dewpoint: 10.1°C ( 50°F) [RH = 22%]
Pressure (altimeter):29.90 inches Hg (1012.6 mb)
Winds:from the SSE (160 degrees) at 8 MPH (7 knots; 3.6 m/s)
Visibility:10 or more sm (16+ km)
Ceiling:at least 12,000 feet AGL
Clouds: scattered clouds at 5500 feet AGL
QC Flag:automated observation with no human augmentation